Time;durP1;ratioP1;P1;durP2;ratioP2;P2;SDS_P1;SDS_P2;PMS_P1;PMS_P2;Temp;Humidity;BMP_temperature;BMP_pressure;BME280_temperature;BME280_humidity;BME280_pressure;Samples;Min_cycle;Max_cycle;Signal;HPM_P1;HPM_P2
2021/08/10 00:00:50;;;;;;;4.40;3.60;;;;;;;13.09;100.00;98305.38;5052054;28;20246;-71
2021/08/10 00:03:17;;;;;;;4.63;3.60;;;;;;;13.07;100.00;98310.00;5056931;28;20276;-69
2021/08/10 00:05:48;;;;;;;3.67;3.23;;;;;;;13.01;100.00;98315.03;5048021;28;20251;-71
2021/08/10 00:08:18;;;;;;;3.80;3.60;;;;;;;13.07;100.00;98308.19;5055067;28;20234;-70
2021/08/10 00:10:47;;;;;;;4.13;3.80;;;;;;;12.95;100.00;98302.41;5051897;28;20304;-70
2021/08/10 00:13:17;;;;;;;4.13;3.73;;;;;;;12.86;100.00;98301.59;5057611;28;20210;-70
2021/08/10 00:15:45;;;;;;;3.87;3.57;;;;;;;12.85;100.00;98312.44;5050164;28;20207;-71
2021/08/10 00:18:13;;;;;;;3.80;3.40;;;;;;;12.81;100.00;98306.59;5047419;28;20244;-70
2021/08/10 00:20:41;;;;;;;4.47;3.87;;;;;;;12.82;100.00;98307.44;5059421;28;20213;-72
2021/08/10 00:23:09;;;;;;;4.80;3.80;;;;;;;12.84;100.00;98305.44;5052044;28;20293;-71
2021/08/10 00:25:39;;;;;;;5.77;4.17;;;;;;;12.84;100.00;98314.25;5049008;28;20229;-71
2021/08/10 00:28:07;;;;;;;4.40;4.00;;;;;;;12.69;100.00;98314.16;5050322;28;20231;-70
2021/08/10 00:30:35;;;;;;;4.33;3.93;;;;;;;12.66;100.00;98311.78;5058543;28;20204;-71
2021/08/10 00:33:03;;;;;;;4.30;4.00;;;;;;;12.60;100.00;98307.16;5056496;28;20203;-70
2021/08/10 00:35:31;;;;;;;4.20;3.80;;;;;;;12.53;100.00;98303.53;5049855;28;20204;-70
2021/08/10 00:37:59;;;;;;;4.17;3.87;;;;;;;12.53;100.00;98308.84;5048088;28;20701;-71
2021/08/10 00:40:28;;;;;;;4.27;4.00;;;;;;;12.39;100.00;98294.41;5045775;28;20223;-71
2021/08/10 00:42:57;;;;;;;4.00;3.67;;;;;;;12.34;100.00;98294.94;5051298;28;20214;-71
2021/08/10 00:45:25;;;;;;;4.87;4.43;;;;;;;12.28;100.00;98301.72;5055310;28;20254;-71
2021/08/10 00:47:54;;;;;;;4.37;4.07;;;;;;;12.26;100.00;98305.53;5048456;28;20315;-70
2021/08/10 00:50:21;;;;;;;4.07;3.83;;;;;;;12.22;100.00;98304.22;5048832;28;20218;-71
2021/08/10 00:52:49;;;;;;;4.63;4.20;;;;;;;12.17;100.00;98302.09;5052905;28;20628;-71
2021/08/10 00:55:18;;;;;;;3.70;3.40;;;;;;;12.15;100.00;98312.84;5055573;28;20214;-70
2021/08/10 00:57:46;;;;;;;4.67;4.27;;;;;;;12.15;100.00;98304.06;5054793;28;20209;-70
2021/08/10 01:00:16;;;;;;;4.33;3.90;;;;;;;12.14;100.00;98305.06;5052274;28;20506;-71
2021/08/10 01:02:44;;;;;;;4.27;3.97;;;;;;;12.10;100.00;98299.25;5053409;28;20203;-68
2021/08/10 01:05:13;;;;;;;4.43;4.13;;;;;;;12.03;100.00;98303.56;5054246;28;20226;-71
2021/08/10 01:07:46;;;;;;;5.00;4.53;;;;;;;12.05;100.00;98300.72;5048589;28;20202;-70
2021/08/10 01:10:19;;;;;;;4.67;4.27;;;;;;;12.02;100.00;98297.41;5051411;28;20530;-71
2021/08/10 01:12:52;;;;;;;4.60;4.20;;;;;;;11.98;100.00;98305.88;5055703;28;20333;-73
2021/08/10 01:15:26;;;;;;;7.90;4.20;;;;;;;11.92;100.00;98294.06;5050101;28;20214;-71
2021/08/10 01:17:58;;;;;;;4.77;4.47;;;;;;;11.93;100.00;98298.38;5051359;28;20227;-73
2021/08/10 01:21:09;;;;;;;5.60;4.30;;;;;;;11.98;100.00;98298.72;5049275;28;20231;-72
2021/08/10 01:23:37;;;;;;;5.30;4.73;;;;;;;11.93;100.00;98294.88;4981403;28;20544;-73
2021/08/10 01:26:24;;;;;;;4.53;4.13;;;;;;;11.91;100.00;98305.69;5045147;28;20288;-73
2021/08/10 01:28:54;;;;;;;6.37;4.53;;;;;;;11.78;100.00;98295.53;5057207;28;20225;-73
2021/08/10 01:31:26;;;;;;;4.03;3.73;;;;;;;11.77;100.00;98293.06;5053537;28;20507;-72
2021/08/10 01:34:00;;;;;;;4.50;4.20;;;;;;;11.74;100.00;98291.56;5055625;28;20556;-72
2021/08/10 01:36:28;;;;;;;4.57;4.27;;;;;;;11.74;100.00;98296.88;5055420;28;20207;-72
2021/08/10 01:38:59;;;;;;;4.30;4.00;;;;;;;11.66;100.00;98295.03;5052386;28;20534;-72
2021/08/10 01:41:27;;;;;;;4.53;4.23;;;;;;;11.73;100.00;98298.69;5051274;28;20222;-72
2021/08/10 01:43:56;;;;;;;4.33;4.03;;;;;;;11.68;100.00;98294.88;5046334;28;20231;-71
2021/08/10 01:46:27;;;;;;;4.30;4.00;;;;;;;11.68;100.00;98305.50;5051564;28;20207;-73
2021/08/10 01:48:56;;;;;;;5.33;4.87;;;;;;;11.67;100.00;98296.69;5054453;28;20242;-72
2021/08/10 01:51:26;;;;;;;5.77;5.27;;;;;;;11.68;100.00;98294.88;5049377;28;20203;-73
2021/08/10 01:53:57;;;;;;;4.73;4.33;;;;;;;11.62;100.00;98298.19;5052230;28;20207;-72
2021/08/10 01:56:25;;;;;;;4.47;4.17;;;;;;;11.64;100.00;98290.88;5054203;28;20215;-72
2021/08/10 01:58:55;;;;;;;4.80;4.50;;;;;;;11.55;100.00;98292.69;5047498;28;20222;-72
2021/08/10 02:01:24;;;;;;;4.63;4.10;;;;;;;11.56;100.00;98295.19;5047631;28;20297;-73
2021/08/10 02:03:54;;;;;;;4.03;3.73;;;;;;;11.53;100.00;98287.53;5055365;28;20210;-74
2021/08/10 02:06:23;;;;;;;5.17;4.50;;;;;;;11.57;100.00;98277.44;5052026;28;20214;-72
2021/08/10 02:08:52;;;;;;;4.57;4.27;;;;;;;11.63;100.00;98290.06;5054938;28;20234;-73
2021/08/10 02:11:23;;;;;;;4.77;4.30;;;;;;;11.64;100.00;98278.44;5049590;28;20355;-70
2021/08/10 02:13:51;;;;;;;4.70;4.30;;;;;;;11.65;100.00;98281.94;5049691;28;20199;-72
2021/08/10 02:16:20;;;;;;;4.10;3.80;;;;;;;11.53;100.00;98282.22;5049844;28;20212;-73
2021/08/10 02:18:48;;;;;;;4.60;4.30;;;;;;;11.51;100.00;98278.91;5043654;28;20227;-72
2021/08/10 02:21:25;;;;;;;7.33;4.47;;;;;;;11.57;100.00;98269.47;5051303;28;20199;-72
2021/08/10 02:24:00;;;;;;;4.57;4.27;;;;;;;11.49;100.00;98272.13;5053889;28;20198;-72
2021/08/10 02:26:29;;;;;;;4.77;4.40;;;;;;;11.49;100.00;98267.63;5049467;28;20211;-73
2021/08/10 02:28:57;;;;;;;4.50;4.10;;;;;;;11.40;100.00;98274.75;5052762;28;20223;-72
2021/08/10 02:31:26;;;;;;;4.10;3.90;;;;;;;11.42;100.00;98277.25;5048165;28;20211;-73
2021/08/10 02:33:55;;;;;;;5.07;4.40;;;;;;;11.33;100.00;98280.88;5049946;28;20377;-72
2021/08/10 02:36:24;;;;;;;4.70;4.30;;;;;;;11.29;100.00;98275.88;5048224;28;20204;-73
2021/08/10 02:38:52;;;;;;;4.50;4.10;;;;;;;11.37;100.00;98275.09;5050310;28;20230;-73
2021/08/10 02:41:21;;;;;;;4.20;3.90;;;;;;;11.33;100.00;98279.03;5049784;28;20557;-72
2021/08/10 02:43:49;;;;;;;4.70;4.30;;;;;;;11.28;100.00;98271.56;5055216;28;20207;-72
2021/08/10 02:46:17;;;;;;;4.80;3.93;;;;;;;11.28;100.00;98266.28;5042202;28;20722;-71
2021/08/10 02:48:45;;;;;;;6.00;4.67;;;;;;;11.24;100.00;98264.94;5042324;28;20229;-72
2021/08/10 02:51:13;;;;;;;4.80;4.40;;;;;;;11.24;100.00;98264.94;5042339;28;20314;-72
2021/08/10 02:53:42;;;;;;;4.37;4.03;;;;;;;11.22;100.00;98264.25;5047644;28;20217;-72
2021/08/10 02:56:13;;;;;;;4.60;4.20;;;;;;;11.26;100.00;98256.78;5046986;28;20207;-72
2021/08/10 02:58:46;;;;;;;5.17;4.67;;;;;;;11.27;100.00;98254.00;5057885;28;20222;-73
2021/08/10 03:01:15;;;;;;;4.90;4.33;;;;;;;11.23;100.00;98257.97;5048501;28;20237;-72
2021/08/10 03:03:46;;;;;;;4.43;4.13;;;;;;;11.26;100.00;98252.34;5049577;28;20628;-71
2021/08/10 03:06:14;;;;;;;8.70;4.90;;;;;;;11.34;100.00;98253.34;5044707;28;20215;-72
2021/08/10 03:08:48;;;;;;;4.37;3.97;;;;;;;11.26;100.00;98240.88;5047456;28;20222;-73
2021/08/10 03:11:16;;;;;;;4.37;3.97;;;;;;;11.30;100.00;98252.81;5056445;28;20218;-71
2021/08/10 03:13:45;;;;;;;5.93;4.87;;;;;;;11.36;100.00;98256.66;5055106;28;20436;-70
2021/08/10 03:16:16;;;;;;;4.07;3.77;;;;;;;11.36;100.00;98256.66;5050109;28;20199;-71
2021/08/10 03:18:46;;;;;;;4.17;3.87;;;;;;;11.22;100.00;98258.97;5053136;28;20265;-70
2021/08/10 03:21:14;;;;;;;4.00;3.73;;;;;;;11.28;100.00;98257.47;5059038;28;20306;-71
2021/08/10 03:23:43;;;;;;;5.63;4.23;;;;;;;11.23;100.00;98257.97;5058162;28;20555;-70
2021/08/10 03:26:14;;;;;;;4.20;3.90;;;;;;;11.31;100.00;98251.84;5052388;28;20227;-71
2021/08/10 03:28:44;;;;;;;4.43;3.90;;;;;;;11.29;100.00;98252.00;5054329;28;20526;-71
2021/08/10 03:31:13;;;;;;;4.37;4.07;;;;;;;11.30;100.00;98255.47;5049951;28;20211;-71
2021/08/10 03:33:42;;;;;;;4.30;3.93;;;;;;;11.34;100.00;98248.03;5061305;28;20249;-71
2021/08/10 03:36:10;;;;;;;4.83;3.57;;;;;;;11.36;100.00;98251.34;5050732;28;20214;-70
2021/08/10 03:38:39;;;;;;;5.73;3.83;;;;;;;11.41;100.00;98254.34;5059185;28;20234;-70
2021/08/10 03:41:08;;;;;;;4.80;4.50;;;;;;;11.43;100.00;98255.00;5048250;28;20212;-70
2021/08/10 03:43:38;;;;;;;3.97;3.77;;;;;;;11.41;100.00;98251.69;5057924;28;20631;-71
2021/08/10 03:46:07;;;;;;;4.30;3.90;;;;;;;11.41;100.00;98243.72;5057091;28;20223;-70
2021/08/10 03:48:36;;;;;;;4.53;4.13;;;;;;;11.49;100.00;98248.22;5052669;28;20234;-69
2021/08/10 03:51:04;;;;;;;4.63;4.23;;;;;;;11.52;100.00;98254.03;5049095;28;20215;-69
2021/08/10 03:53:32;;;;;;;4.87;4.47;;;;;;;11.48;100.00;98255.34;5048750;28;20207;-72
2021/08/10 03:56:01;;;;;;;4.00;3.77;;;;;;;11.42;100.00;98248.03;5055443;28;20291;-72
2021/08/10 03:58:32;;;;;;;4.07;3.80;;;;;;;11.47;100.00;98252.88;5053203;28;20640;-73
2021/08/10 04:01:03;;;;;;;4.20;3.90;;;;;;;11.51;100.00;98241.75;5049998;28;20587;-70
2021/08/10 04:03:32;;;;;;;5.13;4.63;;;;;;;11.58;100.00;98240.13;5060176;28;20732;-70
2021/08/10 04:06:00;;;;;;;4.60;3.90;;;;;;;11.66;100.00;98235.81;5048857;28;20250;-69
2021/08/10 04:08:30;;;;;;;4.00;3.70;;;;;;;11.62;100.00;98232.66;5055592;28;20219;-71
2021/08/10 04:10:58;;;;;;;5.10;4.70;;;;;;;11.56;100.00;98230.66;5056006;28;20213;-70
2021/08/10 04:13:26;;;;;;;3.67;3.47;;;;;;;11.43;100.00;98228.47;5059502;28;20217;-70
2021/08/10 04:15:55;;;;;;;4.13;3.90;;;;;;;11.52;100.00;98231.97;5056909;28;20206;-70
2021/08/10 04:18:24;;;;;;;3.50;3.30;;;;;;;11.51;100.00;98236.44;5053770;28;20273;-69
2021/08/10 04:20:53;;;;;;;4.20;3.80;;;;;;;11.52;100.00;98234.63;5052770;28;20215;-70
2021/08/10 04:23:22;;;;;;;4.03;3.73;;;;;;;11.44;100.00;98232.78;5045688;28;20196;-69
2021/08/10 04:25:50;;;;;;;4.23;3.87;;;;;;;11.60;100.00;98233.81;5054219;28;20239;-70
2021/08/10 04:28:18;;;;;;;8.80;4.30;;;;;;;11.71;100.00;98230.84;5054360;28;20223;-69
2021/08/10 04:30:47;;;;;;;5.00;3.90;;;;;;;11.61;100.00;98224.88;5047123;28;20579;-70
2021/08/10 04:33:16;;;;;;;4.10;3.53;;;;;;;11.64;100.00;98232.50;5057447;28;20276;-69
2021/08/10 04:35:45;;;;;;;4.30;4.00;;;;;;;11.60;100.00;98236.47;5047524;28;20204;-68
2021/08/10 04:38:13;;;;;;;4.60;4.20;;;;;;;11.65;100.00;98234.97;5055186;28;20226;-71
2021/08/10 04:40:41;;;;;;;4.20;3.90;;;;;;;11.68;100.00;98237.28;5056277;28;20218;-72
2021/08/10 04:43:09;;;;;;;4.57;3.83;;;;;;;11.81;100.00;98241.28;5050928;28;20228;-69
2021/08/10 04:45:37;;;;;;;4.47;4.17;;;;;;;11.93;100.00;98244.41;5055262;28;20224;-71
2021/08/10 04:48:05;;;;;;;5.17;3.80;;;;;;;11.91;100.00;98251.72;5057548;28;20734;-69
2021/08/10 04:50:33;;;;;;;4.60;4.30;;;;;;;11.91;100.00;98259.69;5057386;28;20215;-70
2021/08/10 04:53:03;;;;;;;3.63;3.43;;;;;;;12.02;100.00;98259.41;5047518;28;20207;-70
2021/08/10 04:55:31;;;;;;;4.43;4.00;;;;;;;11.97;100.00;98257.22;5056915;28;20556;-71
2021/08/10 04:57:59;;;;;;;4.57;4.27;;;;;;;12.11;100.00;98261.06;5047276;28;20230;-71
2021/08/10 05:00:29;;;;;;;4.20;3.90;;;;;;;12.11;100.00;98255.75;5054936;28;20199;-69
2021/08/10 05:02:57;;;;;;;4.00;3.60;;;;;;;12.10;100.00;98259.41;5054466;28;20630;-70
2021/08/10 05:05:25;;;;;;;4.10;3.80;;;;;;;12.18;100.00;98260.38;5052777;28;20609;-70
2021/08/10 05:07:53;;;;;;;3.97;3.77;;;;;;;12.29;100.00;98262.69;5051024;28;20207;-70
2021/08/10 05:10:23;;;;;;;4.53;4.00;;;;;;;12.37;100.00;98264.50;5049654;28;20230;-69
2021/08/10 05:12:51;;;;;;;5.73;3.73;;;;;;;12.50;100.00;98256.03;5056728;28;20210;-71
2021/08/10 05:15:20;;;;;;;5.47;3.90;;;;;;;12.52;100.00;98257.53;5051766;28;20208;-71
2021/08/10 05:17:48;;;;;;;4.33;3.93;;;;;;;12.58;100.00;98259.50;5053373;28;20575;-70
2021/08/10 05:20:16;;;;;;;6.87;5.03;;;;;;;12.70;100.00;98252.00;5051836;28;20211;-71
2021/08/10 05:22:44;;;;;;;3.80;3.50;;;;;;;12.72;100.00;98255.31;5055556;28;20495;-70
2021/08/10 05:25:12;;;;;;;5.80;3.80;;;;;;;12.85;100.00;98260.06;5053776;28;20215;-71
2021/08/10 05:27:41;;;;;;;4.13;3.83;;;;;;;12.88;100.00;98251.75;5060403;28;20316;-70
2021/08/10 05:30:10;;;;;;;4.30;3.70;;;;;;;13.06;100.00;98265.78;5055454;28;20207;-71
2021/08/10 05:32:38;;;;;;;4.87;4.40;;;;;;;13.17;100.00;98265.41;5060900;28;20496;-70
2021/08/10 05:35:25;;;;;;;4.53;4.13;;;;;;;13.33;100.00;98267.16;5048616;28;20658;-71
2021/08/10 05:37:53;;;;;;;5.83;4.20;;;;;;;13.42;100.00;98257.28;5058479;28;20271;-70
2021/08/10 05:40:21;;;;;;;4.53;4.13;;;;;;;13.35;100.00;98253.66;5056690;28;20633;-69
2021/08/10 05:42:50;;;;;;;4.30;3.90;;;;;;;13.26;100.00;98256.38;5052843;28;20574;-70
2021/08/10 05:45:19;;;;;;;4.10;3.80;;;;;;;13.35;100.00;98253.66;5055875;28;20209;-70
2021/08/10 05:47:47;;;;;;;4.67;4.20;;;;;;;13.50;100.00;98259.09;5047975;28;20254;-70
2021/08/10 05:50:15;;;;;;;5.57;3.87;;;;;;;13.67;100.00;98252.69;5050259;28;20202;-71
2021/08/10 05:52:43;;;;;;;4.17;3.70;;;;;;;13.81;100.00;98258.22;5054500;28;20238;-70
2021/08/10 05:55:12;;;;;;;5.00;4.50;;;;;;;13.93;100.00;98262.13;5052137;28;20208;-71
2021/08/10 05:57:40;;;;;;;4.13;3.90;;;;;;;14.07;100.00;98263.16;5054369;28;21585;-71
2021/08/10 06:00:10;;;;;;;3.90;3.60;;;;;;;14.42;100.00;98257.38;5055524;28;20592;-71
2021/08/10 06:02:38;;;;;;;3.73;3.43;;;;;;;14.48;100.00;98251.31;5051138;28;20208;-69
2021/08/10 06:05:07;;;;;;;4.60;4.20;;;;;;;14.75;100.00;98267.69;5053466;28;20583;-70
2021/08/10 06:07:35;;;;;;;5.87;3.87;;;;;;;14.80;100.00;98265.31;5052379;28;20533;-70
2021/08/10 06:10:04;;;;;;;4.70;3.47;;;;;;;14.88;100.00;98261.72;5052392;28;20672;-70
2021/08/10 06:12:33;;;;;;;5.70;3.63;;;;;;;14.98;100.00;98256.09;5056623;28;20211;-71
2021/08/10 06:15:02;;;;;;;4.10;3.80;;;;;;;15.09;100.00;98260.13;5043953;28;20286;-70
2021/08/10 06:17:31;;;;;;;3.60;3.40;;;;;;;15.18;100.00;98253.66;5049741;28;21924;-71
2021/08/10 06:20:00;;;;;;;3.97;3.73;;;;;;;15.15;100.00;98252.22;5055671;28;20492;-71
2021/08/10 06:22:28;;;;;;;4.10;3.17;;;;;;;15.29;100.00;98245.16;5050023;28;20207;-69
2021/08/10 06:24:56;;;;;;;3.20;3.00;;;;;;;15.37;100.00;98254.09;5056970;28;20206;-71
2021/08/10 06:27:24;;;;;;;5.37;4.00;;;;;;;15.39;100.00;98265.41;5049288;28;20729;-71
2021/08/10 06:29:52;;;;;;;3.17;2.90;;;;;;;15.90;100.00;98264.50;5051410;28;20222;-72
2021/08/10 06:32:21;;;;;;;3.70;3.40;;;;;;;16.01;100.00;98264.00;5051495;28;20203;-71
2021/08/10 06:34:50;;;;;;;4.17;3.77;;;;;;;16.08;100.00;98258.69;5055393;28;20208;-71
2021/08/10 06:37:18;;;;;;;6.53;3.77;;;;;;;15.98;100.00;98255.53;5048056;28;20196;-71
2021/08/10 06:39:46;;;;;;;4.83;3.37;;;;;;;16.10;100.00;98262.03;5048628;28;20642;-70
2021/08/10 06:42:14;;;;;;;3.83;3.53;;;;;;;16.00;100.00;98261.50;5046861;28;20211;-71
2021/08/10 06:44:42;;;;;;;5.23;3.93;;;;;;;16.14;100.00;98255.28;5055316;28;20574;-72
2021/08/10 06:47:11;;;;;;;4.43;4.03;;;;;;;16.37;100.00;98248.84;5061409;28;20219;-71
2021/08/10 06:49:39;;;;;;;3.87;3.30;;;;;;;16.41;100.00;98255.44;5053007;28;20252;-71
2021/08/10 06:52:09;;;;;;;4.20;3.83;;;;;;;16.58;100.00;98249.81;5056202;28;20204;-71
2021/08/10 06:54:38;;;;;;;4.00;3.60;;;;;;;16.63;100.00;98258.06;5059631;28;20232;-71
2021/08/10 06:57:06;;;;;;;3.97;3.67;;;;;;;16.54;100.00;98280.66;5053556;28;20214;-71
2021/08/10 06:59:35;;;;;;;3.67;3.37;;;;;;;16.59;100.00;98278.22;5058146;28;20226;-73
2021/08/10 07:02:04;;;;;;;5.13;3.63;;;;;;;16.62;100.00;98269.78;5048973;28;20203;-70
2021/08/10 07:04:32;;;;;;;5.33;3.70;;;;;;;16.64;100.00;98265.06;5057632;28;20231;-71
2021/08/10 07:07:01;;;;;;;4.80;3.97;;;;;;;16.69;100.00;98264.50;5049917;28;20739;-70
2021/08/10 07:09:31;;;;;;;3.37;3.17;;;;;;;16.61;100.00;98262.78;5054305;28;20672;-71
2021/08/10 07:11:59;;;;;;;7.90;3.57;;;;;;;16.66;100.00;98263.00;5058536;28;20695;-70
2021/08/10 07:14:27;;;;;;;4.13;3.77;;;;;;;16.77;100.00;98257.09;5056687;28;20204;-71
2021/08/10 07:16:55;;;;;;;5.43;3.77;;;;;;;16.83;100.00;98262.69;5051929;28;20553;-70
2021/08/10 07:19:23;;;;;;;4.63;3.77;;;;;;;16.61;100.00;98260.91;5051209;28;20239;-70
2021/08/10 07:21:51;;;;;;;5.23;3.57;;;;;;;16.82;100.00;98261.03;5053721;28;20469;-71
2021/08/10 07:24:20;;;;;;;4.10;3.80;;;;;;;16.90;100.00;98248.31;5054207;28;20199;-70
2021/08/10 07:26:49;;;;;;;5.57;3.17;;;;;;;17.02;100.00;98253.13;5053670;28;20747;-71
2021/08/10 07:29:22;;;;;;;3.30;3.10;;;;;;;17.04;100.00;98253.75;5049827;28;20219;-69
2021/08/10 07:31:49;;;;;;;4.23;3.20;;;;;;;17.22;100.00;98250.53;5050980;28;20218;-70
2021/08/10 07:34:17;;;;;;;4.13;3.73;;;;;;;17.29;100.00;98251.41;5046173;28;20203;-70
2021/08/10 07:36:45;;;;;;;3.70;3.23;;;;;;;17.55;100.00;98254.34;5053735;28;20588;-69
2021/08/10 07:39:13;;;;;;;3.30;3.10;;;;;;;17.97;100.00;98252.34;5060221;28;20231;-70
2021/08/10 07:41:41;;;;;;;4.13;3.73;;;;;;;18.11;100.00;98247.84;5050729;28;20217;-70
2021/08/10 07:44:11;;;;;;;3.20;3.00;;;;;;;18.42;100.00;98232.13;5056322;28;20203;-70
2021/08/10 07:46:39;;;;;;;3.43;3.20;;;;;;;18.64;100.00;98220.13;5051083;28;20200;-70
2021/08/10 07:49:07;;;;;;;3.47;3.27;;;;;;;18.71;100.00;98220.06;5048851;28;20290;-70
2021/08/10 07:51:35;;;;;;;3.37;3.17;;;;;;;19.01;100.00;98216.09;5063225;28;20203;-71
2021/08/10 07:54:03;;;;;;;3.63;3.20;;;;;;;19.12;100.00;98217.25;5050459;28;20208;-71
2021/08/10 07:56:31;;;;;;;5.67;3.50;;;;;;;19.43;99.95;98216.50;5050620;28;20199;-70
2021/08/10 07:58:58;;;;;;;3.23;3.03;;;;;;;19.40;97.42;98213.41;5052288;28;20226;-71
2021/08/10 08:01:28;;;;;;;3.50;2.93;;;;;;;19.44;97.39;98203.88;5058399;28;20199;-71
2021/08/10 08:03:56;;;;;;;3.23;2.93;;;;;;;19.53;94.71;98214.16;5052457;28;20281;-71
2021/08/10 08:06:24;;;;;;;3.53;3.23;;;;;;;19.68;94.00;98229.13;5049302;28;20623;-71
2021/08/10 08:08:52;;;;;;;3.53;2.83;;;;;;;19.85;94.63;98242.88;5050301;28;20865;-69
2021/08/10 08:11:20;;;;;;;7.23;3.00;;;;;;;20.13;92.85;98228.19;5058030;28;20295;-70
2021/08/10 08:13:48;;;;;;;4.27;3.23;;;;;;;20.32;91.29;98228.25;5057689;28;20200;-69
2021/08/10 08:16:16;;;;;;;5.87;3.33;;;;;;;20.32;86.58;98221.00;5050145;28;20211;-70
2021/08/10 08:18:46;;;;;;;3.07;2.50;;;;;;;20.20;85.69;98218.19;5055792;28;20232;-71
2021/08/10 08:21:14;;;;;;;3.57;2.73;;;;;;;20.53;83.36;98213.56;5049504;28;20337;-71
2021/08/10 08:23:41;;;;;;;3.17;2.80;;;;;;;20.61;85.66;98207.03;5053515;28;20203;-69
2021/08/10 08:26:10;;;;;;;3.20;3.00;;;;;;;20.88;81.29;98196.00;5046874;28;20210;-69
2021/08/10 08:28:38;;;;;;;3.07;2.87;;;;;;;20.89;81.06;98193.09;5045425;28;20231;-69
2021/08/10 08:31:06;;;;;;;4.37;2.50;;;;;;;21.01;82.21;98192.31;5055539;28;20587;-70
2021/08/10 08:33:34;;;;;;;5.90;3.10;;;;;;;21.11;81.19;98190.72;5048264;28;20791;-70
2021/08/10 08:36:03;;;;;;;4.97;2.83;;;;;;;21.16;79.55;98192.72;5051275;28;20724;-71
2021/08/10 08:38:31;;;;;;;2.53;2.30;;;;;;;21.29;76.76;98182.81;5053138;28;20225;-70
2021/08/10 08:41:05;;;;;;;3.27;2.90;;;;;;;21.36;73.55;98184.34;5053573;28;20210;-70
2021/08/10 08:43:33;;;;;;;2.40;2.30;;;;;;;20.80;69.00;98181.78;5050684;28;20211;-71
2021/08/10 08:46:01;;;;;;;2.73;2.37;;;;;;;20.79;71.12;98201.69;5052386;28;20196;-70
2021/08/10 08:48:30;;;;;;;3.47;2.60;;;;;;;20.82;68.03;98189.63;5055403;28;20227;-71
2021/08/10 08:51:00;;;;;;;2.73;2.53;;;;;;;20.84;69.69;98206.41;5050556;28;20207;-71
2021/08/10 08:53:30;;;;;;;2.97;2.27;;;;;;;21.10;74.86;98207.94;5056043;28;20203;-70
2021/08/10 08:55:58;;;;;;;2.53;2.33;;;;;;;21.29;67.68;98205.19;5053228;28;20202;-71
2021/08/10 08:58:26;;;;;;;3.10;2.80;;;;;;;21.26;68.63;98200.25;5055161;28;20774;-70
2021/08/10 09:00:54;;;;;;;2.37;2.27;;;;;;;21.13;67.29;98200.44;5055871;28;20214;-71
2021/08/10 09:03:22;;;;;;;2.20;2.03;;;;;;;21.06;69.36;98198.66;5053814;28;20294;-70
2021/08/10 09:05:51;;;;;;;3.37;2.27;;;;;;;21.21;69.90;98192.03;5049326;28;20327;-70
2021/08/10 09:08:31;;;;;;;3.73;2.37;;;;;;;21.18;68.08;98192.50;5049742;28;20742;-70
2021/08/10 09:11:01;;;;;;;2.37;2.20;;;;;;;21.46;69.11;98183.00;5052710;28;20230;-71
2021/08/10 09:13:30;;;;;;;2.20;2.10;;;;;;;21.52;68.50;98190.16;5057757;28;20856;-71
2021/08/10 09:16:02;;;;;;;2.30;2.10;;;;;;;21.82;66.59;98198.22;5053731;28;20204;-71
2021/08/10 09:18:30;;;;;;;2.57;2.10;;;;;;;21.65;61.90;98205.34;5054844;28;20215;-70
2021/08/10 09:21:00;;;;;;;3.03;2.60;;;;;;;21.88;61.14;98203.72;5045964;28;20211;-71
2021/08/10 09:23:45;;;;;;;2.30;2.20;;;;;;;22.07;61.79;98196.34;5059357;28;20648;-70
2021/08/10 09:26:15;;;;;;;2.83;2.20;;;;;;;22.51;60.95;98199.53;5053616;28;20214;-71
2021/08/10 09:28:43;;;;;;;2.40;2.20;;;;;;;22.49;58.46;98192.75;5059484;28;20310;-70
2021/08/10 09:31:31;;;;;;;3.10;2.30;;;;;;;22.47;58.81;98200.25;5048465;28;20208;-70
2021/08/10 09:34:01;;;;;;;2.03;1.93;;;;;;;22.52;58.87;98198.47;5053904;28;20217;-70
2021/08/10 09:36:30;;;;;;;2.63;2.43;;;;;;;22.36;58.47;98194.63;5053754;28;20207;-71
2021/08/10 09:38:59;;;;;;;2.07;1.90;;;;;;;22.36;58.73;98194.63;5055281;28;20222;-70
2021/08/10 09:41:28;;;;;;;2.23;2.13;;;;;;;22.58;57.99;98194.00;5049535;28;20222;-70
2021/08/10 09:44:10;;;;;;;2.40;2.03;;;;;;;22.97;58.52;98193.47;5053340;28;20528;-71
2021/08/10 09:46:39;;;;;;;2.23;2.13;;;;;;;23.15;56.38;98197.88;5054214;28;20239;-70
2021/08/10 09:49:08;;;;;;;2.90;2.63;;;;;;;22.84;52.60;98206.16;5049205;28;20587;-69
2021/08/10 09:51:42;;;;;;;2.20;2.00;;;;;;;22.56;53.53;98196.13;5053410;28;20203;-71
2021/08/10 09:54:12;;;;;;;3.37;2.67;;;;;;;22.65;57.18;98202.81;5053943;28;20213;-71
2021/08/10 09:56:45;;;;;;;2.00;1.80;;;;;;;22.63;57.22;98207.63;5051887;28;20218;-71
2021/08/10 09:59:13;;;;;;;2.50;2.30;;;;;;;23.13;55.81;98197.28;5050851;28;20888;-71
2021/08/10 10:01:42;;;;;;;2.97;1.90;;;;;;;23.34;55.32;98206.63;5055689;28;20214;-72
2021/08/10 10:04:12;;;;;;;2.27;2.00;;;;;;;23.72;50.40;98212.41;5045517;28;20199;-70
2021/08/10 10:06:41;;;;;;;3.40;2.27;;;;;;;23.41;49.31;98210.00;5049315;28;20628;-70
2021/08/10 10:09:12;;;;;;;3.13;1.77;;;;;;;23.73;50.55;98213.25;5050444;28;20231;-71
2021/08/10 10:11:42;;;;;;;2.90;2.03;;;;;;;23.12;49.95;98223.47;5054358;28;20217;-71
2021/08/10 10:14:11;;;;;;;2.30;2.10;;;;;;;23.15;51.99;98208.69;5047911;28;20211;-70
2021/08/10 10:16:42;;;;;;;2.60;2.40;;;;;;;23.12;52.94;98215.38;5052580;28;20210;-71
2021/08/10 10:19:11;;;;;;;1.80;1.70;;;;;;;23.28;52.14;98210.28;5051639;28;20285;-71
2021/08/10 10:21:42;;;;;;;1.90;1.80;;;;;;;23.19;50.65;98207.13;5049014;28;20210;-71
2021/08/10 10:24:13;;;;;;;2.30;2.20;;;;;;;23.60;50.87;98198.94;5052938;28;20206;-70
2021/08/10 10:26:43;;;;;;;2.60;2.40;;;;;;;23.81;49.66;98205.53;5058560;28;20222;-70
2021/08/10 10:29:15;;;;;;;3.27;2.27;;;;;;;23.80;48.12;98203.06;5051908;28;20239;-71
2021/08/10 10:31:43;;;;;;;2.30;2.10;;;;;;;23.70;46.74;98206.44;5049891;28;20217;-70
2021/08/10 10:34:13;;;;;;;3.17;2.30;;;;;;;23.66;47.11;98205.28;5055863;28;20388;-70
2021/08/10 10:36:43;;;;;;;2.20;2.00;;;;;;;23.50;46.30;98205.03;5059504;28;20622;-71
2021/08/10 10:39:15;;;;;;;2.07;1.93;;;;;;;23.68;46.88;98205.84;5059305;28;20218;-72
2021/08/10 10:41:43;;;;;;;1.90;1.80;;;;;;;23.51;47.56;98203.13;5057683;28;20209;-71
2021/08/10 10:44:11;;;;;;;3.00;1.93;;;;;;;23.46;47.06;98203.03;5055352;28;20203;-71
2021/08/10 10:46:41;;;;;;;2.70;2.20;;;;;;;23.64;47.88;98212.81;5057226;28;20699;-71
2021/08/10 10:49:09;;;;;;;2.37;2.20;;;;;;;23.94;48.31;98211.69;5054358;28;20338;-71
2021/08/10 10:51:38;;;;;;;3.53;2.53;;;;;;;24.05;47.36;98210.81;5056757;28;20214;-71
2021/08/10 10:54:26;;;;;;;3.00;2.40;;;;;;;23.97;47.40;98197.66;5058750;28;20580;-71
2021/08/10 10:56:56;;;;;;;2.03;1.93;;;;;;;24.94;46.43;98204.72;5051298;28;20209;-71
2021/08/10 10:59:33;;;;;;;2.17;1.97;;;;;;;25.27;44.51;98192.88;5057735;28;20716;-71
2021/08/10 11:02:25;;;;;;;2.57;2.37;;;;;;;25.71;46.72;98183.84;5054293;28;20216;-72
2021/08/10 11:05:26;;;;;;;2.43;2.13;;;;;;;26.79;40.92;98182.91;5047758;28;20210;-71
2021/08/10 11:07:56;;;;;;;2.77;2.33;;;;;;;26.34;41.71;98179.69;5049470;28;20207;-70
2021/08/10 11:10:45;;;;;;;2.40;2.30;;;;;;;26.14;42.41;98180.34;5050295;28;20232;-70
2021/08/10 11:13:38;;;;;;;2.57;2.00;;;;;;;25.90;41.87;98177.19;5055589;28;20238;-72
2021/08/10 11:16:07;;;;;;;3.10;2.17;;;;;;;26.29;40.86;98169.59;5035753;28;20553;-71
2021/08/10 11:18:36;;;;;;;4.73;2.60;;;;;;;26.04;42.13;98180.28;5054460;28;20232;-71
2021/08/10 11:21:24;;;;;;;2.00;1.83;;;;;;;25.47;43.82;98183.38;5049855;28;20670;-71
2021/08/10 11:23:53;;;;;;;2.50;2.30;;;;;;;25.14;45.48;98175.13;5055477;28;20202;-71
2021/08/10 11:26:40;;;;;;;5.37;3.13;;;;;;;24.97;46.81;98188.75;5050291;28;20203;-70
2021/08/10 11:29:10;;;;;;;3.90;2.43;;;;;;;24.73;46.77;98182.75;5052524;28;20227;-71
2021/08/10 11:31:42;;;;;;;2.40;2.07;;;;;;;24.31;48.33;98181.41;5054711;28;20223;-71
2021/08/10 11:34:33;;;;;;;4.87;2.67;;;;;;;24.13;48.35;98188.72;5053050;28;20203;-71
2021/08/10 11:37:21;;;;;;;3.53;2.50;;;;;;;24.30;48.02;98187.06;5055913;28;20311;-71
2021/08/10 11:40:08;;;;;;;4.93;3.03;;;;;;;24.84;46.56;98187.28;5057621;28;20718;-71